Flight Track Log - Related Links

Times and Time Zones

All times are in EDT time to prevent confusion due to time zone crossing. See the USC105 flight status page for this flight to view local times or setup timezone preferences in your user account.

Time Position Orientation Groundspeed Altitude Reporting Facility
EDT Latitude Longitude Course Direction KTS MPH feet Rate Location/Type
Wed 05:19:35 AM 41.8667 -88.2833 160° South 121 139 2,500  Level Chicago TRACON
Wed 05:20:36 AM 41.8333 -88.2667 160° South 135 155 3,500 989 Climbing Chicago TRACON
Wed 05:21:06 AM 41.8247 -88.2431 116° Southeast 133 153 4,000 400 Climbing Chicago Center
Wed 05:22:06 AM 41.8042 -88.1908 118° Southeast 152 175 4,100 446 Climbing Chicago Center
Wed 05:23:07 AM 41.7975 -88.1331 99° East 160 184 4,900 893 Climbing Chicago Center
Wed 05:24:07 AM 41.7975 -88.0806 90° East 142 163 5,900 545 Climbing Chicago Center
Wed 05:25:08 AM 41.7981 -88.0225 89° East 150 173 6,000 50 Climbing Chicago Center
Wed 05:26:08 AM 41.8072 -87.9567 79° East 174 200 6,000 150 Level Chicago Center
Wed 05:27:08 AM 41.8133 -87.8906 83° East 179 206 6,300 632 Climbing Chicago Center
Wed 05:27:24 AM 41.8167 -87.8667 79° East 165 190 6,800 553 Climbing Chicago TRACON
Wed 05:28:24 AM 41.8167 -87.8000 90° East 183 211 7,000 105 Climbing Chicago TRACON
Wed 05:29:18 AM 41.8333 -87.7333 71° East 188 216 7,000  Level Chicago TRACON
Wed 05:30:18 AM 41.8333 -87.6667 90° East 190 219 7,000  Level Chicago TRACON
Wed 05:31:10 AM 41.8444 -87.6231 71° East 189 217 7,000  Level Chicago Center
Wed 05:32:10 AM 41.8525 -87.5533 81° East 188 216 7,000  Level Chicago Center
Wed 05:33:11 AM 41.8589 -87.4850 83° East 185 213 7,000  Level Chicago Center
Wed 05:34:11 AM 41.8678 -87.4144 80° East 191 220 7,000  Level Chicago Center
Wed 05:35:12 AM 41.8753 -87.3453 82° East 188 216 7,000  Level Chicago Center
Wed 05:36:12 AM 41.8844 -87.2625 82° East 187 215 7,000  Level Chicago Center
Wed 05:37:12 AM 41.8928 -87.1939 81° East 187 215 7,000  Level Chicago Center
Wed 05:38:13 AM 41.8994 -87.1256 83° East 185 213 7,000  Level Chicago Center
Wed 05:39:13 AM 41.9072 -87.0569 81° East 186 214 7,000  Level Chicago Center
Wed 05:40:14 AM 41.9150 -86.9894 81° East 185 213 7,000  Level Chicago Center
Wed 05:41:14 AM 41.9222 -86.9208 82° East 185 213 7,000  Level Chicago Center
Wed 05:42:15 AM 41.9297 -86.8528 82° East 185 213 7,000  Level Chicago Center
Wed 05:43:15 AM 41.9361 -86.7850 83° East 184 212 7,000  Level Chicago Center
Wed 05:44:15 AM 41.9433 -86.7172 82° East 184 212 7,000  Level Chicago Center
Wed 05:45:16 AM 41.9503 -86.6581 81° East 184 212 7,000  Level Chicago Center
Wed 05:46:16 AM 41.9583 -86.5775 82° East 182 209 7,000  Level Chicago Center
Wed 05:47:17 AM 41.9653 -86.5103 82° East 183 211 7,000  Level Chicago Center
Wed 05:48:17 AM 41.9725 -86.4431 82° East 182 209 7,000  Level Chicago Center
Wed 05:49:18 AM 41.9792 -86.3756 82° East 183 211 7,000  Level Chicago Center
Wed 05:50:18 AM 41.9864 -86.3072 82° East 184 212 7,000  Level Chicago Center
Wed 05:51:18 AM 41.9933 -86.2383 82° East 186 214 7,000  Level Chicago Center
Wed 05:52:19 AM 42.0006 -86.1703 82° East 185 213 7,000  Level Chicago Center
Wed 05:53:19 AM 42.0081 -86.1011 82° East 188 216 7,000  Level Chicago Center
Wed 05:54:20 AM 42.0147 -86.0317 83° East 188 216 7,000  Level Chicago Center
Wed 05:55:20 AM 42.0217 -85.9631 82° East 186 214 7,000  Level Chicago Center
Wed 05:56:20 AM 42.0281 -85.8950 83° East 183 211 7,000  Level Chicago Center
Wed 05:57:21 AM 42.0347 -85.8275 82° East 182 209 7,000  Level Chicago Center
Wed 05:58:21 AM 42.0417 -85.7592 82° East 184 212 7,000  Level Chicago Center
Wed 05:59:22 AM 42.0489 -85.6906 82° East 185 213 7,000 50 Level Chicago Center
Wed 06:00:22 AM 42.0556 -85.6211 83° East 186 214 7,100  Climbing Chicago Center
Wed 06:02:00 AM 42.0656 -85.5112 83° East  Level FlightAware Approximate
Wed 06:09:00 AM 42.1073 -85.0397 83° East  Level FlightAware Approximate
Wed 06:10:00 AM 42.1131 -84.9723 83° East  Level FlightAware Approximate
Wed 06:11:00 AM 42.1189 -84.9049 83° East  Level FlightAware Approximate
Wed 06:12:00 AM 42.1246 -84.8374 83° East  Level FlightAware Approximate
Wed 06:13:00 AM 42.1303 -84.7700 83° East  Level FlightAware Approximate
Wed 06:14:00 AM 42.1361 -84.7026 83° East  Level FlightAware Approximate
Wed 06:15:00 AM 42.1420 -84.6351 83° East  Level FlightAware Approximate
Wed 06:16:00 AM 42.1455 -84.5674 86° East  Level FlightAware Approximate
Wed 06:17:00 AM 42.1491 -84.4997 86° East  Level FlightAware Approximate
Wed 06:18:00 AM 42.1526 -84.4320 86° East  Level FlightAware Approximate
Wed 06:18:52 AM 42.1717 -84.3406 90° East 184 212 7,000  Level Cleveland Center
Wed 06:19:00 AM 42.1560 -84.3642 86° East  Level FlightAware Approximate
Wed 06:19:28 AM 42.1728 -84.2986 88° East 182 209 7,000  Level Cleveland Center
Wed 06:20:00 AM 42.1594 -84.2965 86° East  Level FlightAware Approximate
Wed 06:20:35 AM 42.1794 -84.2289 83° East 182 209 7,100  Level Cleveland Center
Wed 06:21:00 AM 42.1628 -84.2288 86° East  Level FlightAware Approximate
Wed 06:21:35 AM 42.1856 -84.1592 83° East 179 206 7,100  Level Cleveland Center
Wed 06:22:00 AM 42.1661 -84.1610 86° East  Level FlightAware Approximate
Wed 06:22:24 AM 42.1894 -84.1061 84° East 178 205 7,100  Level Cleveland Center
Wed 06:23:00 AM 42.1549 -84.0950 103° East  Level FlightAware Approximate
Wed 06:23:37 AM 42.1981 -84.0253 82° East 192 221 6,600  Level Cleveland Center
Wed 06:24:00 AM 42.1649 -84.0287 90° East  Level Estimated
Wed 06:24:37 AM 42.2022 -83.9525 86° East 193 222 5,900  Level Cleveland Center
Wed 06:25:38 AM 42.2086 -83.8828 83° East 190 219 5,300 -639 Descending Cleveland Center
Wed 06:26:39 AM 42.2169 -83.8075 81° East 190 219 4,600 -843 Descending Cleveland Center
Wed 06:27:39 AM 42.2022 -83.7394 106° East 196 226 3,600 -942 Descending Cleveland Center
Wed 06:28:40 AM 42.1831 -83.6714 111° Southeast 194 223 2,700 -803 Descending Cleveland Center
Wed 06:29:46 AM 42.1869 -83.6069 85° East 161 185 1,900 -661 Descending Cleveland Center
Wed 06:30:47 AM 42.2194 -83.5636 45° Northeast 144 166 1,300 -590 Descending Cleveland Center
Wed 06:32:00 AM 42.2333 -83.5167 66° East  Level FlightAware Approximate
Wed 06:39:00 AM 42.2393 -83.5310 66° East  Level Estimated
Wed 06:40:00 AM 42.2393 -83.5310 66° East  Level Estimated

Login

Don't have an account? Register now (free) for customized features, flight alerts, and more!